createdAt,value
2022-12-25T00:02:14.261Z,87.00
2022-12-25T00:04:36.884Z,86.93
2022-12-25T00:06:59.870Z,86.78
2022-12-25T00:09:22.463Z,87.19
2022-12-25T00:11:45.095Z,87.05
2022-12-25T00:14:07.685Z,86.41
2022-12-25T00:16:30.323Z,86.38
2022-12-25T00:18:53.700Z,86.89
2022-12-25T00:21:17.055Z,86.96
2022-12-25T00:23:39.927Z,86.73
2022-12-25T00:26:11.590Z,86.96
2022-12-25T00:28:35.955Z,86.88
2022-12-25T00:30:58.485Z,87.22
2022-12-25T00:33:21.190Z,87.20
2022-12-25T00:35:44.113Z,87.15
2022-12-25T00:38:06.932Z,86.48
2022-12-25T00:40:29.548Z,85.96
2022-12-25T00:42:52.279Z,86.16
2022-12-25T00:45:15.971Z,86.48
2022-12-25T00:47:38.831Z,86.55
2022-12-25T00:50:01.763Z,86.13
2022-12-25T00:52:24.842Z,86.20
2022-12-25T00:54:47.402Z,86.07
2022-12-25T00:57:10.114Z,85.65
2022-12-25T00:59:34.440Z,85.58
2022-12-25T01:02:17.522Z,85.49
2022-12-25T01:04:40.337Z,85.23
2022-12-25T01:07:02.876Z,84.66
2022-12-25T01:09:44.082Z,84.94
2022-12-25T01:12:06.852Z,85.41
2022-12-25T01:14:29.386Z,85.21
2022-12-25T01:16:52.082Z,85.96
2022-12-25T01:19:14.745Z,85.97
2022-12-25T01:21:38.019Z,85.97
2022-12-25T01:24:00.614Z,86.03
2022-12-25T01:26:25.688Z,85.94
2022-12-25T01:28:49.427Z,85.96
2022-12-25T01:31:15.703Z,86.14
2022-12-25T01:33:39.452Z,86.22
2022-12-25T01:36:02.024Z,86.17
2022-12-25T01:38:24.700Z,86.74
2022-12-25T01:40:47.385Z,86.25
2022-12-25T01:43:31.451Z,85.89
2022-12-25T01:45:54.382Z,86.10
2022-12-25T01:48:23.689Z,85.72
2022-12-25T01:50:51.532Z,86.15
2022-12-25T01:53:14.456Z,86.96
2022-12-25T01:55:38.229Z,87.30
2022-12-25T01:58:00.939Z,87.27
2022-12-25T02:00:23.667Z,87.55
2022-12-25T02:02:46.830Z,87.52
2022-12-25T02:05:25.980Z,86.66
2022-12-25T02:07:49.645Z,86.05
2022-12-25T02:10:13.171Z,85.64
2022-12-25T02:12:35.969Z,86.01
2022-12-25T02:15:06.449Z,85.85
2022-12-25T02:17:50.975Z,85.67
2022-12-25T02:20:35.182Z,85.61
2022-12-25T02:23:19.680Z,85.68
2022-12-25T02:26:12.935Z,85.67
2022-12-25T02:28:52.741Z,85.89
2022-12-25T02:31:38.033Z,85.45
2022-12-25T02:34:06.494Z,85.62
2022-12-25T02:36:32.728Z,85.98
2022-12-25T02:39:17.326Z,86.98
2022-12-25T02:41:45.591Z,87.38
2022-12-25T02:44:34.720Z,86.97
2022-12-25T02:47:16.227Z,87.64
2022-12-25T02:49:58.568Z,87.25
2022-12-25T02:52:42.500Z,87.50
2022-12-25T02:55:39.893Z,87.62
2022-12-25T02:58:28.266Z,87.63
2022-12-25T03:01:17.966Z,87.62
2022-12-25T03:04:01.588Z,87.30
2022-12-25T03:06:44.242Z,86.46
2022-12-25T03:09:30.957Z,86.52
2022-12-25T03:12:00.163Z,86.90
2022-12-25T03:14:41.649Z,86.88
2022-12-25T03:17:04.376Z,86.61
2022-12-25T03:19:49.822Z,86.79
2022-12-25T03:22:37.810Z,86.76
2022-12-25T03:25:19.370Z,86.90
2022-12-25T03:27:44.155Z,87.26
2022-12-25T03:30:28.180Z,87.66
2022-12-25T03:33:43.139Z,87.54
2022-12-25T03:36:10.236Z,87.45
2022-12-25T03:39:07.370Z,87.17
2022-12-25T03:42:14.935Z,87.31
2022-12-25T03:44:54.359Z,87.03
2022-12-25T03:47:31.811Z,86.76
2022-12-25T03:50:34.364Z,86.50
2022-12-25T03:53:17.870Z,87.01
2022-12-25T03:56:00.791Z,86.80
2022-12-25T03:58:43.784Z,86.01
2022-12-25T04:01:25.323Z,86.46
2022-12-25T04:04:07.065Z,87.46
2022-12-25T04:06:48.494Z,88.03
2022-12-25T04:09:29.944Z,88.16
2022-12-25T04:12:11.313Z,88.11
2022-12-25T04:14:52.294Z,88.38
2022-12-25T04:17:33.792Z,88.49
2022-12-25T04:20:15.634Z,88.52
2022-12-25T04:22:57.123Z,88.62
2022-12-25T04:25:38.382Z,88.71
2022-12-25T04:28:20.746Z,88.64
2022-12-25T04:31:01.565Z,88.55
2022-12-25T04:33:42.943Z,88.52
2022-12-25T04:36:12.515Z,88.27
2022-12-25T04:38:36.903Z,87.99
2022-12-25T04:41:00.984Z,87.89
2022-12-25T04:43:25.260Z,87.63
2022-12-25T04:45:56.316Z,87.48
2022-12-25T04:48:19.065Z,87.05
2022-12-25T04:50:41.622Z,87.22
2022-12-25T04:53:04.201Z,87.17
2022-12-25T04:55:26.806Z,87.22
2022-12-25T04:57:49.869Z,87.11
2022-12-25T05:00:12.738Z,86.98
2022-12-25T05:02:35.627Z,86.86
2022-12-25T05:04:58.628Z,86.84
2022-12-25T05:07:21.255Z,86.41
2022-12-25T05:09:43.920Z,85.96
2022-12-25T05:12:06.533Z,85.22
2022-12-25T05:14:29.123Z,85.24
2022-12-25T05:16:51.698Z,84.92
2022-12-25T05:19:14.702Z,84.80
2022-12-25T05:21:37.355Z,85.46
2022-12-25T05:24:00.042Z,85.65
2022-12-25T05:26:25.195Z,86.11
2022-12-25T05:28:48.282Z,86.34
2022-12-25T05:31:11.009Z,86.09
2022-12-25T05:33:33.816Z,85.84
2022-12-25T05:35:56.403Z,85.92
2022-12-25T05:38:18.988Z,86.47
2022-12-25T05:40:41.579Z,86.82
2022-12-25T05:43:04.064Z,86.64
2022-12-25T05:45:26.668Z,86.24
2022-12-25T05:47:49.212Z,87.78
2022-12-25T05:50:11.989Z,88.67
2022-12-25T05:52:35.071Z,88.60
2022-12-25T05:54:57.708Z,88.89
2022-12-25T05:57:20.293Z,89.50
2022-12-25T05:59:43.172Z,89.33
2022-12-25T06:02:05.793Z,89.08
2022-12-25T06:04:28.614Z,89.29
2022-12-25T06:06:56.724Z,90.00
2022-12-25T06:09:19.455Z,90.28
2022-12-25T06:11:42.275Z,90.72
2022-12-25T06:14:05.006Z,90.80
2022-12-25T06:16:30.489Z,90.11
2022-12-25T06:18:57.000Z,89.25
2022-12-25T06:21:20.103Z,89.08
2022-12-25T06:23:42.802Z,88.92
2022-12-25T06:26:14.340Z,88.93
2022-12-25T06:28:37.196Z,88.63
2022-12-25T06:31:05.213Z,88.79
2022-12-25T06:33:27.838Z,89.68
2022-12-25T06:35:50.446Z,90.24
2022-12-25T06:38:13.048Z,89.91
2022-12-25T06:40:35.685Z,89.95
2022-12-25T06:42:58.278Z,89.70
2022-12-25T06:45:21.120Z,89.98
2022-12-25T06:47:43.678Z,89.97
2022-12-25T06:50:06.966Z,89.44
2022-12-25T06:52:32.440Z,89.14
2022-12-25T06:54:55.021Z,88.85
2022-12-25T06:57:18.989Z,88.53
2022-12-25T06:59:41.589Z,88.74
2022-12-25T07:02:04.590Z,88.95
2022-12-25T07:04:41.745Z,88.49
2022-12-25T07:07:09.157Z,88.73
2022-12-25T07:09:32.403Z,88.14
2022-12-25T07:12:02.009Z,87.74
2022-12-25T07:14:24.829Z,87.38
2022-12-25T07:16:47.936Z,87.08
2022-12-25T07:19:10.935Z,86.94
2022-12-25T07:21:33.552Z,87.05
2022-12-25T07:23:56.181Z,87.00
2022-12-25T07:26:19.296Z,87.05
2022-12-25T07:28:41.973Z,86.83
2022-12-25T07:31:07.393Z,86.36
2022-12-25T07:33:30.235Z,85.29
2022-12-25T07:35:52.853Z,84.89
2022-12-25T07:38:15.458Z,84.51
2022-12-25T07:40:38.618Z,84.43
2022-12-25T07:43:01.589Z,84.08
2022-12-25T07:45:25.063Z,83.98
2022-12-25T07:47:47.737Z,83.86
2022-12-25T07:50:10.922Z,84.94
2022-12-25T07:52:39.589Z,85.35
2022-12-25T07:55:06.263Z,84.58
2022-12-25T07:57:29.836Z,84.56
2022-12-25T07:59:52.451Z,84.47
2022-12-25T08:02:15.286Z,83.96
2022-12-25T08:04:38.247Z,83.83
2022-12-25T08:07:02.812Z,83.50
2022-12-25T08:09:25.804Z,83.48
2022-12-25T08:11:48.435Z,82.24
2022-12-25T08:14:11.049Z,81.44
2022-12-25T08:16:33.924Z,80.56
2022-12-25T08:18:57.142Z,79.87
2022-12-25T08:21:19.897Z,79.53
2022-12-25T08:23:44.182Z,79.09
2022-12-25T08:26:08.609Z,77.87
2022-12-25T08:28:31.302Z,76.84
2022-12-25T08:30:53.935Z,76.76
2022-12-25T08:33:16.746Z,76.88
2022-12-25T08:35:39.442Z,76.67
2022-12-25T08:38:02.493Z,76.73
2022-12-25T08:40:25.688Z,76.95
2022-12-25T08:42:48.229Z,77.18
2022-12-25T08:45:11.381Z,77.65
2022-12-25T08:47:34.207Z,77.69
2022-12-25T08:49:57.292Z,77.81
2022-12-25T08:52:20.197Z,77.57
2022-12-25T08:54:43.036Z,77.65
2022-12-25T08:57:05.720Z,77.24
2022-12-25T08:59:28.390Z,77.10
2022-12-25T09:01:51.450Z,76.82
2022-12-25T09:04:14.614Z,76.89
2022-12-25T09:06:37.338Z,76.08
2022-12-25T09:09:00.043Z,76.17
2022-12-25T09:11:24.170Z,76.31
2022-12-25T09:13:47.659Z,75.24
2022-12-25T09:16:13.647Z,74.88
2022-12-25T09:18:36.813Z,75.33
2022-12-25T09:21:01.419Z,74.64
2022-12-25T09:23:24.499Z,74.68
2022-12-25T09:25:47.279Z,74.70
2022-12-25T09:28:09.948Z,74.19
2022-12-25T09:30:32.595Z,73.86
2022-12-25T09:32:55.402Z,74.15
2022-12-25T09:35:19.117Z,74.38
2022-12-25T09:37:41.780Z,74.08
2022-12-25T09:40:13.139Z,73.20
2022-12-25T09:42:36.118Z,72.20
2022-12-25T09:45:02.882Z,72.04
2022-12-25T09:47:36.723Z,72.25
2022-12-25T09:50:35.324Z,72.27
2022-12-25T09:53:02.938Z,72.68
2022-12-25T09:55:28.714Z,72.49
2022-12-25T09:58:02.325Z,72.22
2022-12-25T10:00:30.546Z,71.85
2022-12-25T10:03:11.139Z,72.02
2022-12-25T10:06:00.422Z,72.53
2022-12-25T10:08:28.940Z,72.68
2022-12-25T10:11:02.495Z,73.25
2022-12-25T10:13:46.886Z,72.57
2022-12-25T10:16:09.523Z,71.90
2022-12-25T10:18:48.001Z,71.57
2022-12-25T10:21:14.271Z,71.80
2022-12-25T10:23:51.901Z,71.32
2022-12-25T10:26:25.199Z,71.91
2022-12-25T10:29:13.476Z,71.57
2022-12-25T10:31:37.460Z,71.35
2022-12-25T10:34:00.402Z,71.78
2022-12-25T10:36:25.610Z,71.27
2022-12-25T10:38:48.700Z,70.89
2022-12-25T10:41:27.515Z,71.36
2022-12-25T10:43:53.730Z,71.29
2022-12-25T10:46:17.415Z,70.96
2022-12-25T10:48:48.177Z,70.79
2022-12-25T10:51:11.044Z,70.48
2022-12-25T10:53:41.187Z,69.97
2022-12-25T10:56:06.185Z,70.11
2022-12-25T10:58:30.004Z,70.03
2022-12-25T11:01:02.215Z,70.56
2022-12-25T11:03:29.982Z,71.05
2022-12-25T11:05:52.992Z,71.55
2022-12-25T11:08:21.675Z,72.11
2022-12-25T11:10:51.667Z,72.06
2022-12-25T11:13:24.584Z,71.86
2022-12-25T11:16:00.964Z,71.14
2022-12-25T11:18:28.573Z,71.23
2022-12-25T11:21:14.387Z,70.48
2022-12-25T11:23:44.911Z,69.38
2022-12-25T11:26:13.439Z,69.46
2022-12-25T11:28:38.645Z,69.97
2022-12-25T11:31:21.741Z,72.63
2022-12-25T11:33:59.496Z,73.64
2022-12-25T11:36:43.191Z,73.84
2022-12-25T11:39:30.011Z,74.42
2022-12-25T11:41:59.407Z,74.74
2022-12-25T11:44:39.303Z,74.65
2022-12-25T11:47:13.053Z,75.05
2022-12-25T11:49:52.172Z,74.85
2022-12-25T11:52:20.108Z,74.76
2022-12-25T11:54:54.667Z,74.78
2022-12-25T11:57:17.495Z,74.31
2022-12-25T11:59:56.179Z,73.94
2022-12-25T12:02:46.206Z,73.89
2022-12-25T12:05:23.373Z,74.07
2022-12-25T12:07:57.400Z,73.83
2022-12-25T12:10:29.007Z,73.48
2022-12-25T12:13:02.344Z,72.44
2022-12-25T12:15:30.743Z,72.74
2022-12-25T12:17:53.668Z,73.12
2022-12-25T12:20:33.806Z,71.98
2022-12-25T12:22:57.254Z,72.20
2022-12-25T12:25:20.925Z,72.31
2022-12-25T12:27:44.190Z,72.91
2022-12-25T12:30:21.883Z,72.52
2022-12-25T12:32:47.754Z,72.51
2022-12-25T12:35:18.719Z,72.87
2022-12-25T12:37:42.424Z,72.44
2022-12-25T12:40:07.940Z,72.12
2022-12-25T12:42:40.267Z,73.01
2022-12-25T12:45:15.743Z,73.05
2022-12-25T12:47:42.312Z,73.01
2022-12-25T12:50:06.099Z,73.12
2022-12-25T12:52:38.325Z,73.00
2022-12-25T12:55:04.472Z,72.93
2022-12-25T12:57:31.631Z,72.60
2022-12-25T12:59:54.900Z,72.59
2022-12-25T13:02:56.387Z,72.38
2022-12-25T13:05:37.842Z,72.02
2022-12-25T13:08:33.393Z,71.87
2022-12-25T13:11:21.755Z,71.01
2022-12-25T13:13:45.723Z,70.71
2022-12-25T13:16:21.118Z,70.57
2022-12-25T13:18:44.310Z,70.66
2022-12-25T13:21:07.592Z,70.51
2022-12-25T13:23:36.997Z,70.36
2022-12-25T13:26:02.808Z,70.02
2022-12-25T13:28:30.617Z,69.78
2022-12-25T13:30:53.391Z,69.24
2022-12-25T13:33:19.477Z,70.30
2022-12-25T13:35:45.387Z,69.50
2022-12-25T13:38:16.917Z,69.73
2022-12-25T13:40:39.614Z,69.19
2022-12-25T13:43:02.420Z,69.08
2022-12-25T13:45:27.948Z,69.05
2022-12-25T13:47:55.414Z,68.81
2022-12-25T13:50:31.850Z,68.02
2022-12-25T13:52:56.471Z,67.94
2022-12-25T13:55:28.428Z,67.84
2022-12-25T13:57:57.810Z,68.60
2022-12-25T14:00:35.304Z,69.88
2022-12-25T14:02:58.977Z,70.39
2022-12-25T14:05:37.985Z,70.40
2022-12-25T14:08:15.002Z,70.21
2022-12-25T14:10:40.433Z,69.85
2022-12-25T14:13:06.758Z,69.91
2022-12-25T14:15:33.909Z,70.52
2022-12-25T14:17:57.004Z,70.32
2022-12-25T14:20:36.248Z,70.32
2022-12-25T14:23:00.867Z,70.94
2022-12-25T14:25:31.206Z,71.29
2022-12-25T14:27:53.827Z,72.25
2022-12-25T14:30:17.081Z,72.46
2022-12-25T14:32:44.556Z,72.96
2022-12-25T14:35:09.729Z,74.26
2022-12-25T14:37:34.320Z,74.24
2022-12-25T14:39:59.794Z,74.71
2022-12-25T14:42:29.052Z,74.67
2022-12-25T14:45:03.501Z,75.67
2022-12-25T14:47:27.196Z,76.90
2022-12-25T14:49:50.010Z,76.51
2022-12-25T14:52:39.352Z,76.40
2022-12-25T14:55:06.248Z,76.78
2022-12-25T14:57:34.429Z,77.96
2022-12-25T15:00:03.489Z,78.55
2022-12-25T15:02:30.870Z,78.72
2022-12-25T15:04:53.746Z,78.90
2022-12-25T15:07:28.925Z,79.33
2022-12-25T15:10:10.532Z,79.80
2022-12-25T15:12:34.148Z,80.38
2022-12-25T15:14:56.774Z,79.91
2022-12-25T15:17:25.561Z,79.75
2022-12-25T15:19:48.247Z,80.34
2022-12-25T15:22:13.316Z,80.33
2022-12-25T15:24:35.860Z,81.08
2022-12-25T15:27:00.451Z,81.22
2022-12-25T15:29:44.520Z,81.17
2022-12-25T15:32:14.263Z,81.25
2022-12-25T15:34:36.831Z,81.86
2022-12-25T15:36:59.690Z,83.01
2022-12-25T15:39:22.424Z,83.21
2022-12-25T15:42:03.350Z,82.61
2022-12-25T15:44:26.260Z,81.51
2022-12-25T15:46:49.000Z,81.53
2022-12-25T15:49:12.513Z,82.02
2022-12-25T15:51:35.450Z,82.01
2022-12-25T15:53:59.094Z,81.97
2022-12-25T15:56:23.057Z,81.93
2022-12-25T15:58:45.654Z,81.89
2022-12-25T16:01:14.267Z,82.24
2022-12-25T16:03:37.136Z,81.90
2022-12-25T16:05:59.743Z,82.40
2022-12-25T16:08:22.616Z,82.45
2022-12-25T16:10:45.266Z,82.05
2022-12-25T16:13:08.032Z,82.04
2022-12-25T16:15:30.570Z,82.07
2022-12-25T16:17:53.230Z,82.09
2022-12-25T16:20:16.027Z,81.69
2022-12-25T16:22:42.121Z,81.41
2022-12-25T16:25:05.027Z,81.33
2022-12-25T16:27:27.660Z,81.29
2022-12-25T16:29:50.292Z,80.98
2022-12-25T16:32:14.172Z,81.43
2022-12-25T16:34:37.052Z,81.08
2022-12-25T16:36:59.633Z,80.88
2022-12-25T16:39:22.443Z,81.39
2022-12-25T16:41:48.219Z,81.39
2022-12-25T16:44:11.941Z,81.20
2022-12-25T16:46:35.195Z,81.23
2022-12-25T16:48:57.822Z,81.44
2022-12-25T16:51:21.724Z,81.51
2022-12-25T16:53:44.463Z,81.27
2022-12-25T16:56:16.260Z,81.08
2022-12-25T16:58:39.302Z,81.59
2022-12-25T17:01:10.688Z,82.25
2022-12-25T17:03:33.491Z,81.76
2022-12-25T17:05:56.126Z,82.20
2022-12-25T17:08:18.864Z,82.08
2022-12-25T17:10:41.463Z,81.71
2022-12-25T17:13:03.967Z,81.64
2022-12-25T17:15:27.700Z,82.14
2022-12-25T17:17:50.299Z,82.23
2022-12-25T17:20:12.924Z,82.28
2022-12-25T17:22:35.601Z,81.79
2022-12-25T17:24:58.457Z,81.63
2022-12-25T17:27:21.075Z,81.66
2022-12-25T17:29:44.198Z,82.02
2022-12-25T17:32:08.333Z,83.00
2022-12-25T17:34:30.920Z,83.45
2022-12-25T17:36:54.535Z,83.64
2022-12-25T17:39:17.544Z,84.10
2022-12-25T17:41:40.054Z,84.78
2022-12-25T17:44:02.669Z,86.19
2022-12-25T17:46:27.675Z,85.95
2022-12-25T17:48:51.900Z,85.61
2022-12-25T17:51:16.672Z,85.56
2022-12-25T17:53:41.765Z,85.38
2022-12-25T17:56:04.744Z,85.68
2022-12-25T17:58:27.770Z,86.04
2022-12-25T18:00:50.535Z,86.31
2022-12-25T18:03:13.246Z,86.67
2022-12-25T18:05:36.417Z,86.88
2022-12-25T18:07:59.342Z,88.08
2022-12-25T18:10:22.165Z,89.02
2022-12-25T18:12:45.621Z,88.82
2022-12-25T18:15:08.882Z,88.28
2022-12-25T18:17:31.444Z,87.89
2022-12-25T18:19:54.591Z,87.61
2022-12-25T18:22:17.247Z,88.47
2022-12-25T18:24:39.891Z,88.42
2022-12-25T18:27:02.644Z,88.44
2022-12-25T18:29:25.229Z,88.70
2022-12-25T18:31:48.046Z,89.23
2022-12-25T18:34:10.850Z,89.43
2022-12-25T18:36:33.737Z,89.57
2022-12-25T18:38:56.951Z,88.87
2022-12-25T18:41:21.380Z,89.23
2022-12-25T18:43:53.090Z,88.67
2022-12-25T18:46:18.365Z,87.72
2022-12-25T18:49:22.278Z,86.95
2022-12-25T18:51:46.048Z,86.74
2022-12-25T18:54:08.619Z,86.81
2022-12-25T18:56:31.188Z,86.71
2022-12-25T18:58:54.075Z,86.05
2022-12-25T19:01:23.830Z,85.53
2022-12-25T19:03:49.150Z,85.16
2022-12-25T19:06:25.053Z,84.81
2022-12-25T19:08:47.686Z,85.62
2022-12-25T19:11:10.247Z,85.82
2022-12-25T19:13:32.881Z,85.41
2022-12-25T19:15:59.358Z,85.44
2022-12-25T19:18:22.007Z,85.17
2022-12-25T19:20:44.800Z,85.45
2022-12-25T19:23:08.596Z,85.22
2022-12-25T19:25:31.797Z,85.52
2022-12-25T19:27:54.729Z,85.47
2022-12-25T19:30:18.299Z,85.40
2022-12-25T19:32:41.088Z,85.21
2022-12-25T19:35:04.943Z,85.05
2022-12-25T19:37:27.568Z,84.39
2022-12-25T19:39:50.320Z,84.27
2022-12-25T19:42:16.423Z,83.97
2022-12-25T19:44:39.065Z,83.83
2022-12-25T19:47:01.697Z,83.45
2022-12-25T19:49:24.307Z,83.63
2022-12-25T19:51:47.082Z,83.47
2022-12-25T19:54:15.242Z,83.68
2022-12-25T19:56:37.877Z,84.54
2022-12-25T19:59:00.841Z,84.08
2022-12-25T20:01:25.917Z,83.98
2022-12-25T20:03:49.330Z,83.44
2022-12-25T20:06:19.920Z,83.26
2022-12-25T20:08:42.754Z,82.92
2022-12-25T20:11:05.448Z,82.90
2022-12-25T20:13:28.302Z,82.81
2022-12-25T20:15:50.991Z,83.90
2022-12-25T20:18:14.028Z,84.15
2022-12-25T20:20:36.838Z,84.73
2022-12-25T20:22:59.621Z,85.13
2022-12-25T20:25:22.202Z,85.00
2022-12-25T20:27:45.165Z,85.12
2022-12-25T20:30:08.450Z,84.93
2022-12-25T20:32:31.362Z,84.92
2022-12-25T20:34:53.927Z,84.49
2022-12-25T20:37:16.554Z,84.53
2022-12-25T20:39:40.216Z,84.73
2022-12-25T20:42:02.909Z,84.58
2022-12-25T20:44:25.615Z,84.95
2022-12-25T20:46:48.214Z,85.56
2022-12-25T20:49:10.818Z,86.44
2022-12-25T20:51:38.370Z,86.53
2022-12-25T20:54:01.634Z,86.52
2022-12-25T20:56:26.471Z,86.44
2022-12-25T20:58:56.022Z,85.81
2022-12-25T21:01:18.918Z,85.33
2022-12-25T21:03:41.967Z,85.36
2022-12-25T21:06:05.041Z,84.77
2022-12-25T21:08:28.167Z,85.30
2022-12-25T21:10:53.041Z,85.21
2022-12-25T21:13:15.816Z,85.22
2022-12-25T21:15:43.901Z,85.73
2022-12-25T21:18:06.398Z,86.41
2022-12-25T21:20:29.254Z,85.80
2022-12-25T21:22:51.798Z,85.23
2022-12-25T21:25:14.439Z,85.32
2022-12-25T21:27:36.936Z,85.42
2022-12-25T21:29:59.557Z,85.44
2022-12-25T21:32:56.651Z,85.23
2022-12-25T21:35:19.226Z,85.71
2022-12-25T21:37:41.771Z,85.96
2022-12-25T21:40:04.931Z,86.46
2022-12-25T21:42:27.583Z,86.94
2022-12-25T21:44:50.694Z,87.05
2022-12-25T21:47:13.224Z,87.14
2022-12-25T21:49:54.832Z,86.54
2022-12-25T21:52:17.526Z,86.64
2022-12-25T21:54:40.047Z,86.56
2022-12-25T21:57:03.161Z,86.65
2022-12-25T21:59:25.937Z,86.71
2022-12-25T22:01:50.561Z,86.67
2022-12-25T22:04:15.363Z,86.84
2022-12-25T22:06:57.177Z,86.26
2022-12-25T22:09:20.598Z,86.60
2022-12-25T22:12:01.903Z,86.76
2022-12-25T22:14:52.614Z,86.94
2022-12-25T22:17:38.888Z,87.25
2022-12-25T22:20:02.351Z,87.25
2022-12-25T22:22:29.943Z,86.51
2022-12-25T22:24:54.843Z,85.96
2022-12-25T22:27:17.884Z,86.16
2022-12-25T22:29:41.728Z,86.69
2022-12-25T22:32:05.119Z,86.75
2022-12-25T22:34:28.641Z,87.04
2022-12-25T22:36:51.256Z,87.19
2022-12-25T22:39:13.945Z,87.29
2022-12-25T22:41:36.589Z,87.52
2022-12-25T22:46:41.979Z,87.30
2022-12-25T22:49:04.820Z,87.05
2022-12-25T22:51:27.658Z,87.19
2022-12-25T22:53:50.392Z,87.28
2022-12-25T22:56:13.078Z,87.63
2022-12-25T22:58:36.043Z,87.72
2022-12-25T23:00:59.161Z,87.76
2022-12-25T23:03:21.908Z,87.69
2022-12-25T23:05:44.668Z,87.69
2022-12-25T23:08:07.275Z,87.59
2022-12-25T23:10:30.823Z,87.77
2022-12-25T23:13:12.166Z,87.71
2022-12-25T23:15:35.033Z,87.93
2022-12-25T23:18:16.530Z,87.99
2022-12-25T23:20:57.741Z,87.69
2022-12-25T23:23:39.090Z,87.41
2022-12-25T23:26:08.405Z,87.22
2022-12-25T23:28:49.675Z,87.35
2022-12-25T23:31:12.524Z,87.63
2022-12-25T23:33:35.255Z,88.00
2022-12-25T23:35:58.037Z,88.25
2022-12-25T23:38:20.663Z,88.42
2022-12-25T23:40:43.341Z,88.44
2022-12-25T23:43:06.146Z,88.64
2022-12-25T23:45:28.634Z,88.80
2022-12-25T23:47:51.231Z,88.85
2022-12-25T23:50:13.992Z,89.00
2022-12-25T23:52:36.611Z,88.82
2022-12-25T23:54:59.310Z,88.96
2022-12-25T23:57:21.878Z,88.90
2022-12-25T23:59:44.644Z,88.94
